Time;durP1;ratioP1;P1;durP2;ratioP2;P2;SDS_P1;SDS_P2;PMS_P1;PMS_P2;Temp;Humidity;BMP_temperature;BMP_pressure;BME280_temperature;BME280_humidity;BME280_pressure;Samples;Min_cycle;Max_cycle;Signal;HPM_P1;HPM_P2
2022/04/07 00:00:52;;;;;;;14.10;4.00;;;10.00;99.90;;;;;;5019833;28;20949;-71
2022/04/07 00:03:19;;;;;;;6.67;4.30;;;9.90;99.90;;;;;;5032320;28;20468;-70
2022/04/07 00:05:46;;;;;;;6.80;4.17;;;9.90;99.90;;;;;;5029738;28;20454;-70
2022/04/07 00:08:13;;;;;;;5.00;4.43;;;9.90;99.90;;;;;;5020061;28;20500;-71
2022/04/07 00:10:40;;;;;;;5.83;3.43;;;9.90;99.90;;;;;;5024923;28;20512;-71
2022/04/07 00:13:07;;;;;;;4.40;3.63;;;9.90;99.90;;;;;;5013726;28;20473;-70
2022/04/07 00:15:34;;;;;;;6.30;4.20;;;9.80;99.90;;;;;;5018371;28;20488;-71
2022/04/07 00:18:01;;;;;;;3.93;3.53;;;9.80;99.90;;;;;;5029715;28;20620;-71
2022/04/07 00:20:29;;;;;;;6.10;4.53;;;9.80;99.90;;;;;;5020164;28;20460;-71
2022/04/07 00:22:57;;;;;;;7.30;4.63;;;9.90;99.90;;;;;;5033250;28;20515;-71
2022/04/07 00:25:24;;;;;;;5.20;4.70;;;9.90;99.90;;;;;;5024805;28;20954;-70
2022/04/07 00:27:52;;;;;;;8.57;4.70;;;9.80;99.90;;;;;;5018053;28;20514;-71
2022/04/07 00:30:20;;;;;;;4.67;3.97;;;9.80;99.90;;;;;;5030018;28;20454;-71
2022/04/07 00:32:48;;;;;;;5.80;3.80;;;9.80;99.90;;;;;;5026238;28;20460;-71
2022/04/07 00:35:15;;;;;;;6.60;3.90;;;9.80;99.90;;;;;;5014359;28;20847;-71
2022/04/07 00:37:42;;;;;;;7.20;4.30;;;9.80;99.90;;;;;;5013164;28;20845;-70
2022/04/07 00:40:11;;;;;;;7.50;3.87;;;9.70;99.90;;;;;;5013104;28;20959;-71
2022/04/07 00:42:45;;;;;;;5.97;3.47;;;9.60;99.90;;;;;;5013360;28;20454;-71
2022/04/07 00:45:13;;;;;;;5.23;3.87;;;9.60;99.90;;;;;;5029396;28;21142;-71
2022/04/07 00:47:40;;;;;;;6.60;4.20;;;9.60;99.90;;;;;;5024348;28;20449;-71
2022/04/07 00:50:07;;;;;;;5.50;3.50;;;9.50;99.90;;;;;;5015105;28;20524;-71
2022/04/07 00:52:34;;;;;;;5.50;4.20;;;9.50;99.90;;;;;;5012886;28;20505;-71
2022/04/07 00:55:02;;;;;;;3.40;3.10;;;9.50;99.90;;;;;;5012638;28;20462;-70
2022/04/07 00:57:28;;;;;;;4.17;3.40;;;9.60;99.90;;;;;;5013119;28;20489;-70
2022/04/07 00:59:56;;;;;;;6.27;3.60;;;9.60;99.90;;;;;;5024224;28;20477;-70
2022/04/07 01:02:24;;;;;;;4.60;3.33;;;9.60;99.90;;;;;;5019662;28;20516;-70
2022/04/07 01:04:51;;;;;;;4.00;3.60;;;9.60;99.90;;;;;;5012709;28;20998;-71
2022/04/07 01:07:19;;;;;;;4.37;3.30;;;9.50;99.90;;;;;;5012696;28;20446;-70
2022/04/07 01:09:45;;;;;;;4.43;3.60;;;9.50;99.90;;;;;;5025219;28;20504;-71
2022/04/07 01:12:12;;;;;;;5.50;3.67;;;9.50;99.90;;;;;;5032326;28;21004;-70
2022/04/07 01:14:56;;;;;;;3.17;2.83;;;9.40;99.90;;;;;;5031075;28;20450;-70
2022/04/07 01:17:24;;;;;;;5.63;3.93;;;9.40;99.90;;;;;;5030492;28;20896;-70
2022/04/07 01:19:51;;;;;;;6.93;4.00;;;9.40;99.90;;;;;;5026142;28;20470;-70
2022/04/07 01:22:18;;;;;;;5.30;3.53;;;9.40;99.90;;;;;;5013121;28;20466;-70
2022/04/07 01:24:47;;;;;;;8.93;4.63;;;9.40;99.90;;;;;;5018325;28;20507;-70
2022/04/07 01:27:15;;;;;;;7.43;3.93;;;9.40;99.90;;;;;;5018068;28;20538;-71
2022/04/07 01:29:42;;;;;;;4.90;3.60;;;9.40;99.90;;;;;;5031691;28;20473;-70
2022/04/07 01:32:12;;;;;;;4.67;3.90;;;9.30;99.90;;;;;;5013597;28;20954;-70
2022/04/07 01:34:39;;;;;;;4.10;3.73;;;9.30;99.90;;;;;;5015540;28;20544;-71
2022/04/07 01:37:07;;;;;;;7.83;3.97;;;9.30;99.90;;;;;;5028946;28;20457;-70
2022/04/07 01:39:35;;;;;;;5.20;3.70;;;9.30;99.90;;;;;;5012262;28;20470;-70
2022/04/07 01:42:04;;;;;;;4.60;3.87;;;9.30;99.90;;;;;;5023847;28;20450;-70
2022/04/07 01:44:31;;;;;;;6.37;4.00;;;9.30;99.90;;;;;;5012831;28;20929;-71
2022/04/07 01:46:58;;;;;;;5.93;3.87;;;9.30;99.90;;;;;;5019214;28;20458;-71
2022/04/07 01:49:25;;;;;;;4.73;3.67;;;9.40;99.90;;;;;;5022876;28;20474;-71
2022/04/07 01:51:52;;;;;;;6.83;3.73;;;9.40;99.90;;;;;;5031466;28;20446;-70
2022/04/07 01:54:19;;;;;;;4.30;3.90;;;9.40;99.90;;;;;;5027290;28;21018;-70
2022/04/07 01:56:47;;;;;;;6.33;3.20;;;9.50;99.90;;;;;;5012213;28;20858;-70
2022/04/07 01:59:16;;;;;;;9.07;3.60;;;9.50;99.90;;;;;;5022107;28;20535;-71
2022/04/07 02:01:42;;;;;;;7.10;3.80;;;9.50;99.90;;;;;;5023734;28;20465;-70
2022/04/07 02:04:09;;;;;;;7.10;4.33;;;9.60;99.90;;;;;;5012592;28;20959;-70
2022/04/07 02:06:36;;;;;;;6.20;4.20;;;9.60;99.90;;;;;;5012001;28;20505;-70
2022/04/07 02:09:03;;;;;;;5.10;3.90;;;9.60;99.90;;;;;;5021393;28;20470;-70
2022/04/07 02:11:31;;;;;;;4.30;3.90;;;9.70;99.90;;;;;;5011882;28;20451;-71
2022/04/07 02:13:58;;;;;;;4.23;3.83;;;9.70;99.90;;;;;;5030576;28;20894;-70
2022/04/07 02:16:27;;;;;;;6.90;3.60;;;9.70;99.90;;;;;;5022149;28;20501;-71
2022/04/07 02:18:54;;;;;;;6.47;4.00;;;9.70;99.90;;;;;;5011448;28;20553;-71
2022/04/07 02:21:21;;;;;;;9.30;4.73;;;9.70;99.90;;;;;;5011677;28;20508;-72
2022/04/07 02:23:47;;;;;;;4.50;4.10;;;9.70;99.90;;;;;;5025636;28;20450;-71
2022/04/07 02:26:15;;;;;;;4.97;4.33;;;9.70;99.90;;;;;;5017960;28;20503;-71
2022/04/07 02:28:42;;;;;;;4.77;4.03;;;9.70;99.90;;;;;;5028617;28;20481;-71
2022/04/07 02:31:10;;;;;;;5.07;4.30;;;9.70;99.90;;;;;;5011004;28;20860;-71
2022/04/07 02:33:39;;;;;;;3.80;3.50;;;9.70;99.90;;;;;;5014125;28;20464;-71
2022/04/07 02:36:07;;;;;;;6.43;4.50;;;9.70;99.90;;;;;;5010865;28;20512;-71
2022/04/07 02:38:35;;;;;;;5.60;4.53;;;9.70;99.90;;;;;;5027519;28;20555;-72
2022/04/07 02:41:02;;;;;;;5.23;4.50;;;9.60;99.90;;;;;;5030512;28;20484;-71
2022/04/07 02:43:28;;;;;;;4.70;4.30;;;9.60;99.90;;;;;;5029426;28;20495;-71
2022/04/07 02:45:55;;;;;;;3.20;3.00;;;9.60;99.90;;;;;;5030248;28;20458;-71
2022/04/07 02:48:22;;;;;;;5.47;4.43;;;9.60;99.90;;;;;;5027318;28;20465;-71
2022/04/07 02:50:50;;;;;;;4.60;4.20;;;9.60;99.90;;;;;;5011257;28;20921;-71
2022/04/07 02:53:17;;;;;;;4.37;3.20;;;9.60;99.90;;;;;;5011280;28;20446;-71
2022/04/07 02:55:43;;;;;;;4.13;3.83;;;9.60;99.90;;;;;;5020278;28;20449;-71
2022/04/07 02:58:10;;;;;;;6.90;4.33;;;9.60;99.90;;;;;;5028998;28;20547;-71
2022/04/07 03:00:36;;;;;;;4.53;4.00;;;9.50;99.90;;;;;;5013907;28;20943;-72
2022/04/07 03:03:03;;;;;;;3.93;3.63;;;9.50;99.90;;;;;;5010867;28;20528;-71
2022/04/07 03:05:30;;;;;;;4.37;3.50;;;9.50;99.90;;;;;;5010529;28;20458;-72
2022/04/07 03:07:58;;;;;;;4.37;4.00;;;9.50;99.90;;;;;;5029547;28;20556;-71
2022/04/07 03:10:24;;;;;;;5.63;3.67;;;9.60;99.90;;;;;;5023694;28;20464;-71
2022/04/07 03:12:51;;;;;;;4.30;3.87;;;9.50;99.90;;;;;;5029246;28;20461;-72
2022/04/07 03:15:18;;;;;;;6.73;3.97;;;9.60;99.90;;;;;;5030461;28;20523;-71
2022/04/07 03:17:45;;;;;;;3.33;3.03;;;9.60;99.90;;;;;;5012843;28;20797;-71
2022/04/07 03:20:11;;;;;;;3.10;2.90;;;9.60;99.90;;;;;;5012568;28;20492;-71
2022/04/07 03:22:38;;;;;;;4.03;3.27;;;9.60;99.90;;;;;;5028255;28;20499;-71
2022/04/07 03:25:07;;;;;;;2.73;2.53;;;9.60;99.90;;;;;;5010946;28;20460;-71
2022/04/07 03:27:34;;;;;;;3.83;2.90;;;9.70;99.90;;;;;;5011949;28;20454;-71
2022/04/07 03:30:01;;;;;;;2.50;1.97;;;9.60;99.90;;;;;;5010796;28;20449;-71
2022/04/07 03:32:27;;;;;;;3.03;2.83;;;9.60;99.90;;;;;;5017422;28;20453;-71
2022/04/07 03:34:54;;;;;;;2.90;2.70;;;9.60;99.90;;;;;;5030076;28;20446;-71
2022/04/07 03:37:21;;;;;;;7.67;2.40;;;9.70;99.90;;;;;;5030318;28;20461;-71
2022/04/07 03:39:49;;;;;;;2.43;2.23;;;9.70;99.90;;;;;;5023422;28;20489;-72
2022/04/07 03:42:17;;;;;;;3.33;2.73;;;9.70;99.90;;;;;;5026388;28;20461;-72
2022/04/07 03:44:44;;;;;;;3.37;2.60;;;9.70;99.90;;;;;;5033430;28;20511;-71
2022/04/07 03:47:11;;;;;;;3.13;2.90;;;9.60;99.90;;;;;;5034263;28;20449;-71
2022/04/07 03:49:38;;;;;;;3.03;2.83;;;9.60;99.90;;;;;;5023681;28;20885;-71
2022/04/07 03:52:06;;;;;;;3.03;2.83;;;9.60;99.90;;;;;;5033519;28;20544;-72
2022/04/07 03:54:32;;;;;;;3.80;2.97;;;9.50;99.90;;;;;;5017278;28;21036;-71
2022/04/07 03:56:59;;;;;;;3.13;2.43;;;9.50;99.90;;;;;;5025726;28;20457;-71
2022/04/07 03:59:27;;;;;;;3.17;2.87;;;9.50;99.90;;;;;;5018841;28;20486;-71
2022/04/07 04:01:54;;;;;;;3.10;2.60;;;9.50;99.90;;;;;;5013942;28;20500;-71
2022/04/07 04:04:22;;;;;;;3.00;2.30;;;9.40;99.90;;;;;;5032795;28;20567;-72
2022/04/07 04:06:48;;;;;;;3.00;2.80;;;9.40;99.90;;;;;;5033700;28;20458;-71
2022/04/07 04:09:15;;;;;;;4.20;3.20;;;9.40;99.90;;;;;;5033284;28;21077;-72
2022/04/07 04:11:41;;;;;;;4.83;3.00;;;9.30;99.90;;;;;;5033134;28;20457;-71
2022/04/07 04:14:08;;;;;;;3.80;3.07;;;9.30;99.90;;;;;;5028436;28;20458;-71
2022/04/07 04:16:36;;;;;;;4.13;2.73;;;9.20;99.90;;;;;;5013968;28;20954;-72
2022/04/07 04:19:03;;;;;;;3.00;2.80;;;9.20;99.90;;;;;;5016614;28;20481;-71
2022/04/07 04:21:29;;;;;;;3.10;2.90;;;9.20;99.90;;;;;;5032974;28;20507;-71
2022/04/07 04:23:56;;;;;;;3.60;3.13;;;9.10;99.90;;;;;;5032952;28;20453;-71
2022/04/07 04:26:23;;;;;;;3.40;3.10;;;9.10;99.90;;;;;;5023794;28;20518;-71
2022/04/07 04:28:49;;;;;;;2.50;2.40;;;9.10;99.90;;;;;;5014798;28;20886;-71
2022/04/07 04:31:16;;;;;;;2.57;2.37;;;9.10;99.90;;;;;;5031545;28;20473;-71
2022/04/07 04:33:44;;;;;;;2.60;2.40;;;9.10;99.90;;;;;;5025921;28;20468;-71
2022/04/07 04:36:10;;;;;;;2.50;2.40;;;9.20;99.90;;;;;;5027796;28;20909;-71
2022/04/07 04:38:37;;;;;;;2.50;2.30;;;9.20;99.90;;;;;;5032766;28;20489;-71
2022/04/07 04:41:04;;;;;;;2.30;2.20;;;9.20;99.90;;;;;;5031132;28;20507;-71
2022/04/07 04:43:30;;;;;;;2.27;2.17;;;9.20;99.90;;;;;;5032832;28;20457;-71
2022/04/07 04:45:57;;;;;;;2.20;2.10;;;9.30;99.90;;;;;;5030511;28;20453;-71
2022/04/07 04:48:23;;;;;;;2.17;2.03;;;9.30;99.90;;;;;;5022423;28;20478;-71
2022/04/07 04:50:51;;;;;;;3.50;2.53;;;9.30;99.90;;;;;;5021079;28;21251;-71
2022/04/07 04:53:18;;;;;;;7.93;2.20;;;9.40;99.90;;;;;;5032172;28;20514;-71
2022/04/07 04:55:45;;;;;;;2.40;2.20;;;9.40;99.90;;;;;;5016048;28;20458;-71
2022/04/07 04:58:11;;;;;;;2.50;2.20;;;9.50;99.90;;;;;;5012512;28;20501;-71
2022/04/07 05:00:38;;;;;;;5.20;2.00;;;9.50;99.90;;;;;;5013964;28;20450;-71
2022/04/07 05:03:05;;;;;;;2.40;2.20;;;9.60;99.90;;;;;;5030164;28;20531;-71
2022/04/07 05:05:31;;;;;;;2.10;1.90;;;9.60;99.90;;;;;;5032158;28;20515;-71
2022/04/07 05:07:59;;;;;;;2.00;1.90;;;9.60;99.90;;;;;;5031253;28;20474;-71
2022/04/07 05:10:26;;;;;;;3.13;1.90;;;9.60;99.90;;;;;;5026177;28;20451;-71
2022/04/07 05:12:53;;;;;;;2.70;1.73;;;9.60;99.90;;;;;;5012561;28;20938;-71
2022/04/07 05:15:20;;;;;;;3.37;2.03;;;9.60;99.90;;;;;;5016942;28;20953;-71
2022/04/07 05:17:49;;;;;;;2.10;2.00;;;9.60;99.90;;;;;;5014920;28;20461;-72
2022/04/07 05:20:16;;;;;;;2.40;2.20;;;9.60;99.90;;;;;;5031455;28;20493;-71
2022/04/07 05:22:43;;;;;;;3.83;2.60;;;9.60;99.90;;;;;;5031886;28;20449;-71
2022/04/07 05:25:12;;;;;;;2.87;1.80;;;9.60;99.90;;;;;;5031461;28;20503;-71
2022/04/07 05:27:39;;;;;;;2.07;1.87;;;9.50;99.90;;;;;;5013765;28;20446;-72
2022/04/07 05:30:07;;;;;;;2.57;2.37;;;9.50;99.90;;;;;;5019406;28;20453;-72
2022/04/07 05:32:34;;;;;;;2.50;2.30;;;9.50;99.90;;;;;;5015184;28;20463;-72
2022/04/07 05:35:01;;;;;;;3.40;2.70;;;9.50;99.90;;;;;;5026737;28;20457;-72
2022/04/07 05:37:28;;;;;;;3.20;2.43;;;9.50;99.90;;;;;;5031043;28;20453;-72
2022/04/07 05:39:54;;;;;;;2.60;2.40;;;9.50;99.90;;;;;;5027224;28;20500;-72
2022/04/07 05:42:22;;;;;;;2.43;2.23;;;9.40;99.90;;;;;;5030566;28;20465;-72
2022/04/07 05:44:49;;;;;;;2.87;2.60;;;9.50;99.90;;;;;;5031110;28;20899;-72
2022/04/07 05:47:15;;;;;;;3.03;2.83;;;9.40;99.90;;;;;;5031260;28;20461;-72
2022/04/07 05:49:42;;;;;;;2.47;2.30;;;9.40;99.90;;;;;;5016969;28;20470;-72
2022/04/07 05:52:09;;;;;;;3.30;2.50;;;9.50;99.90;;;;;;5011648;28;20505;-72
2022/04/07 05:54:36;;;;;;;2.50;2.40;;;9.50;99.90;;;;;;5011770;28;20465;-71
2022/04/07 05:57:03;;;;;;;8.90;3.07;;;9.50;99.90;;;;;;5011241;28;20457;-72
2022/04/07 05:59:31;;;;;;;2.83;2.63;;;9.60;99.90;;;;;;5010500;28;21135;-72
2022/04/07 06:01:57;;;;;;;2.80;2.60;;;9.60;99.90;;;;;;5010573;28;20993;-72
2022/04/07 06:04:24;;;;;;;3.60;2.70;;;9.70;99.90;;;;;;5010582;28;20450;-72
2022/04/07 06:06:51;;;;;;;2.73;2.53;;;9.70;99.90;;;;;;5020292;28;20453;-73
2022/04/07 06:09:17;;;;;;;3.40;2.53;;;9.70;99.90;;;;;;5030020;28;20469;-72
2022/04/07 06:11:44;;;;;;;2.73;2.33;;;9.70;99.90;;;;;;5030070;28;20950;-72
2022/04/07 06:14:11;;;;;;;7.23;2.57;;;9.70;99.90;;;;;;5011399;28;20512;-72
2022/04/07 06:16:39;;;;;;;4.63;2.90;;;9.70;99.90;;;;;;5011120;28;20519;-71
2022/04/07 06:19:06;;;;;;;3.70;3.10;;;9.70;99.90;;;;;;5010860;28;20540;-71
2022/04/07 06:21:33;;;;;;;3.37;3.17;;;9.70;99.90;;;;;;5010893;28;20458;-70
2022/04/07 06:24:00;;;;;;;3.50;3.20;;;9.70;99.90;;;;;;5010599;28;20457;-71
2022/04/07 06:26:28;;;;;;;3.60;3.30;;;9.80;99.90;;;;;;5019108;28;20446;-70
2022/04/07 06:28:54;;;;;;;3.43;3.23;;;9.80;99.90;;;;;;5030084;28;20478;-71
2022/04/07 06:31:21;;;;;;;3.70;3.40;;;9.80;99.90;;;;;;5029985;28;20503;-71
2022/04/07 06:33:49;;;;;;;3.77;3.43;;;9.80;99.90;;;;;;5024066;28;20450;-71
2022/04/07 06:36:16;;;;;;;5.40;3.73;;;9.80;99.90;;;;;;5010557;28;20862;-71
2022/04/07 06:38:42;;;;;;;6.07;2.90;;;9.70;99.90;;;;;;5017412;28;20478;-72
2022/04/07 06:41:09;;;;;;;2.80;2.50;;;9.70;99.90;;;;;;5030469;28;20461;-71
2022/04/07 06:43:35;;;;;;;3.17;2.97;;;9.60;99.90;;;;;;5030121;28;20457;-71
2022/04/07 06:46:02;;;;;;;6.77;2.50;;;9.60;99.90;;;;;;5029849;28;20500;-71
2022/04/07 06:48:29;;;;;;;2.27;2.17;;;9.50;99.90;;;;;;5025716;28;20469;-72
2022/04/07 06:50:57;;;;;;;2.33;2.00;;;9.60;99.90;;;;;;5025796;28;20507;-72
2022/04/07 06:53:23;;;;;;;3.13;2.20;;;9.60;99.90;;;;;;5029995;28;20472;-71
2022/04/07 06:55:50;;;;;;;2.83;2.63;;;9.50;99.90;;;;;;5029947;28;20942;-71
2022/04/07 06:58:16;;;;;;;2.23;2.13;;;9.50;99.90;;;;;;5029843;28;21039;-71
2022/04/07 07:00:45;;;;;;;2.17;2.07;;;9.40;99.90;;;;;;5030068;28;20542;-71
2022/04/07 07:03:13;;;;;;;2.00;1.90;;;9.40;99.90;;;;;;5016756;28;20516;-71
2022/04/07 07:05:41;;;;;;;1.90;1.80;;;9.40;99.90;;;;;;5009715;28;20473;-71
2022/04/07 07:08:13;;;;;;;2.43;2.10;;;9.40;99.90;;;;;;5021359;28;20477;-71
2022/04/07 07:10:40;;;;;;;2.40;2.20;;;9.30;99.90;;;;;;5029791;28;20449;-71
2022/04/07 07:13:07;;;;;;;2.50;1.90;;;9.30;99.90;;;;;;5029855;28;20453;-72
2022/04/07 07:15:34;;;;;;;1.97;1.87;;;9.20;99.90;;;;;;5032446;28;20448;-71
2022/04/07 07:18:00;;;;;;;2.37;2.03;;;9.10;99.90;;;;;;5033485;28;20473;-71
2022/04/07 07:20:27;;;;;;;2.07;1.97;;;9.10;99.90;;;;;;5033242;28;20481;-71
2022/04/07 07:22:54;;;;;;;2.30;2.10;;;9.10;99.90;;;;;;5031452;28;20503;-71
2022/04/07 07:25:22;;;;;;;2.20;2.00;;;9.10;99.90;;;;;;5017060;28;20458;-71
2022/04/07 07:27:49;;;;;;;3.43;1.77;;;9.10;99.90;;;;;;5028144;28;20457;-70
2022/04/07 07:30:18;;;;;;;1.67;1.57;;;9.10;99.90;;;;;;5032897;28;20562;-71
2022/04/07 07:32:46;;;;;;;2.00;1.90;;;9.10;99.90;;;;;;5033525;28;20453;-70
2022/04/07 07:35:13;;;;;;;1.93;1.80;;;9.10;99.90;;;;;;5032906;28;20937;-71
2022/04/07 07:37:49;;;;;;;1.90;1.80;;;9.00;99.90;;;;;;5035470;28;20503;-70
2022/04/07 07:40:16;;;;;;;2.17;2.07;;;9.00;99.90;;;;;;5047928;28;20487;-70
2022/04/07 07:42:44;;;;;;;2.23;1.80;;;9.10;99.90;;;;;;5033028;28;20865;-70
2022/04/07 07:45:11;;;;;;;2.10;1.60;;;9.10;99.90;;;;;;5033024;28;20511;-70
2022/04/07 07:47:38;;;;;;;2.50;1.97;;;9.20;99.90;;;;;;5033196;28;20556;-70
2022/04/07 07:50:06;;;;;;;2.90;2.10;;;9.20;99.90;;;;;;5015548;28;20516;-70
2022/04/07 07:52:33;;;;;;;2.90;1.67;;;9.20;99.90;;;;;;5013289;28;20531;-70
2022/04/07 07:55:01;;;;;;;1.80;1.70;;;9.20;99.90;;;;;;5012915;28;20457;-70
2022/04/07 07:57:28;;;;;;;1.70;1.60;;;9.30;99.90;;;;;;5013135;28;20485;-70
2022/04/07 07:59:57;;;;;;;1.60;1.50;;;9.40;99.90;;;;;;5012855;28;20544;-70
2022/04/07 08:02:24;;;;;;;1.60;1.50;;;9.40;99.90;;;;;;5013194;28;20496;-70
2022/04/07 08:04:51;;;;;;;1.60;1.50;;;9.40;99.90;;;;;;5013186;28;20496;-70
2022/04/07 08:07:18;;;;;;;1.10;1.00;;;9.50;99.90;;;;;;5032533;28;20965;-71
2022/04/07 08:09:45;;;;;;;2.17;1.20;;;9.60;99.90;;;;;;5014447;28;20532;-70
2022/04/07 08:12:11;;;;;;;2.90;1.20;;;9.60;99.90;;;;;;5012866;28;20938;-70
2022/04/07 08:14:39;;;;;;;1.57;1.43;;;9.70;99.90;;;;;;5013749;28;20447;-72
2022/04/07 08:17:07;;;;;;;1.30;1.20;;;9.70;99.90;;;;;;5012879;28;20450;-72
2022/04/07 08:19:35;;;;;;;1.20;1.10;;;9.80;99.90;;;;;;5012056;28;21008;-73
2022/04/07 08:22:02;;;;;;;1.30;1.20;;;9.80;99.90;;;;;;5012743;28;20549;-72
2022/04/07 08:24:28;;;;;;;1.40;1.30;;;9.80;99.90;;;;;;5012601;28;20461;-73
2022/04/07 08:26:55;;;;;;;1.30;1.20;;;9.80;99.90;;;;;;5024349;28;20441;-72
2022/04/07 08:29:22;;;;;;;1.67;1.37;;;9.80;99.90;;;;;;5030230;28;20489;-73
2022/04/07 08:31:51;;;;;;;1.40;1.30;;;9.70;99.90;;;;;;5020268;28;20457;-72
2022/04/07 08:34:20;;;;;;;1.30;1.20;;;9.60;99.90;;;;;;5029564;28;20455;-73
2022/04/07 08:36:46;;;;;;;1.70;1.30;;;9.60;99.90;;;;;;5032261;28;20449;-72
2022/04/07 08:39:13;;;;;;;1.50;1.40;;;9.60;99.90;;;;;;5046950;28;20992;-73
2022/04/07 08:41:42;;;;;;;1.20;1.10;;;9.50;99.90;;;;;;5052127;28;20537;-73
2022/04/07 08:44:08;;;;;;;1.93;1.20;;;9.60;99.90;;;;;;5051936;28;20452;-73
2022/04/07 08:46:35;;;;;;;1.77;1.67;;;9.60;99.90;;;;;;5050415;28;20452;-73
2022/04/07 08:49:04;;;;;;;1.33;1.23;;;9.70;99.90;;;;;;5016292;28;20470;-72
2022/04/07 08:51:32;;;;;;;1.60;1.50;;;9.80;99.90;;;;;;5012247;28;20474;-71
2022/04/07 08:54:00;;;;;;;1.60;1.50;;;9.90;99.90;;;;;;5012368;28;20900;-73
2022/04/07 08:56:27;;;;;;;2.60;2.40;;;10.00;99.90;;;;;;5012120;28;20454;-73
2022/04/07 08:58:54;;;;;;;3.07;2.03;;;10.10;99.90;;;;;;5012189;28;20474;-73
2022/04/07 09:01:21;;;;;;;1.80;1.70;;;10.10;99.90;;;;;;5011575;28;20565;-73
2022/04/07 09:03:48;;;;;;;2.03;1.93;;;10.20;99.90;;;;;;5011671;28;20524;-73
2022/04/07 09:06:16;;;;;;;1.97;1.50;;;10.20;99.90;;;;;;5011877;28;20450;-72
2022/04/07 09:08:44;;;;;;;1.63;1.40;;;10.30;99.90;;;;;;5023793;28;20495;-72
2022/04/07 09:11:12;;;;;;;1.30;1.20;;;10.40;99.90;;;;;;5031552;28;20942;-72
2022/04/07 09:13:40;;;;;;;1.93;1.30;;;10.40;99.90;;;;;;5031431;28;20457;-72
2022/04/07 09:16:11;;;;;;;1.40;1.30;;;10.50;99.90;;;;;;5031464;28;20445;-72
2022/04/07 09:18:38;;;;;;;2.10;1.90;;;10.60;99.90;;;;;;5031331;28;20477;-72
2022/04/07 09:21:06;;;;;;;1.57;1.33;;;10.60;99.90;;;;;;5030675;28;20868;-72
2022/04/07 09:23:37;;;;;;;1.30;1.20;;;10.70;99.90;;;;;;5019299;28;20454;-72
2022/04/07 09:26:06;;;;;;;1.50;1.40;;;10.70;99.90;;;;;;5012287;28;20458;-72
2022/04/07 09:28:33;;;;;;;1.40;1.30;;;10.80;99.90;;;;;;5017086;28;20994;-73
2022/04/07 09:31:01;;;;;;;1.20;1.10;;;10.80;99.90;;;;;;5027519;28;20901;-73
2022/04/07 09:33:29;;;;;;;1.20;1.10;;;10.90;99.90;;;;;;5021093;28;20528;-73
2022/04/07 09:36:05;;;;;;;1.20;1.10;;;10.90;99.90;;;;;;5014890;28;20458;-72
2022/04/07 09:38:32;;;;;;;1.43;1.33;;;10.90;99.90;;;;;;5030240;28;21007;-72
2022/04/07 09:41:08;;;;;;;1.63;1.20;;;10.90;99.90;;;;;;5050798;28;20996;-72
2022/04/07 09:43:46;;;;;;;1.30;1.20;;;11.00;99.90;;;;;;5033690;28;20469;-71
2022/04/07 09:46:14;;;;;;;1.30;0.93;;;10.90;99.90;;;;;;5011499;28;20507;-71
2022/04/07 09:48:58;;;;;;;1.17;1.07;;;11.00;99.90;;;;;;5011151;28;20482;-71
2022/04/07 09:51:25;;;;;;;1.30;1.20;;;11.00;99.90;;;;;;5011208;28;20438;-71
2022/04/07 09:53:55;;;;;;;8.20;1.20;;;11.10;99.90;;;;;;5023384;28;20461;-71
2022/04/07 09:56:26;;;;;;;1.33;1.10;;;11.10;99.90;;;;;;5031017;28;20450;-70
2022/04/07 09:58:54;;;;;;;1.20;1.10;;;11.10;99.90;;;;;;5030756;28;20473;-72
2022/04/07 10:01:21;;;;;;;1.20;1.10;;;11.10;99.90;;;;;;5030630;28;20554;-73
2022/04/07 10:03:50;;;;;;;1.30;1.20;;;11.10;99.90;;;;;;5030309;28;21008;-70
2022/04/07 10:06:18;;;;;;;1.30;1.20;;;11.20;99.90;;;;;;5030507;28;20971;-71
2022/04/07 10:08:49;;;;;;;1.20;1.10;;;11.20;99.90;;;;;;5022294;28;20473;-70
2022/04/07 10:11:17;;;;;;;1.20;1.10;;;11.20;99.90;;;;;;5014238;28;20542;-70
2022/04/07 10:13:46;;;;;;;7.03;1.30;;;11.30;99.90;;;;;;5010357;28;20460;-70
2022/04/07 10:16:15;;;;;;;1.33;1.23;;;11.30;99.90;;;;;;5013279;28;20450;-71
2022/04/07 10:18:46;;;;;;;2.80;1.07;;;11.30;99.90;;;;;;5016534;28;20473;-71
2022/04/07 10:21:34;;;;;;;3.20;1.70;;;11.40;99.90;;;;;;5024931;28;20903;-71
2022/04/07 10:24:18;;;;;;;1.10;1.00;;;11.40;99.90;;;;;;5010685;28;20581;-72
2022/04/07 10:26:47;;;;;;;1.40;1.10;;;11.60;99.90;;;;;;5020416;28;20960;-71
2022/04/07 10:29:24;;;;;;;1.20;1.10;;;11.60;99.90;;;;;;5030060;28;20902;-72
2022/04/07 10:32:22;;;;;;;1.33;1.20;;;11.70;99.90;;;;;;5030567;28;20453;-72
2022/04/07 10:34:59;;;;;;;1.77;1.00;;;11.80;99.90;;;;;;5018642;28;20456;-73
2022/04/07 10:37:43;;;;;;;1.40;1.10;;;11.90;99.90;;;;;;5030414;28;20453;-73
2022/04/07 10:40:49;;;;;;;1.40;1.07;;;12.00;99.90;;;;;;5049878;28;20448;-73
2022/04/07 10:43:21;;;;;;;3.33;1.00;;;12.00;99.90;;;;;;5043644;28;20456;-72
2022/04/07 10:45:51;;;;;;;1.50;1.10;;;12.10;99.90;;;;;;5050381;28;20452;-72
2022/04/07 10:48:26;;;;;;;1.10;1.00;;;12.20;99.90;;;;;;5047091;28;20472;-71
2022/04/07 10:50:55;;;;;;;1.20;1.10;;;12.20;99.90;;;;;;5026508;28;20542;-71
2022/04/07 10:53:24;;;;;;;1.37;1.27;;;12.20;99.90;;;;;;5030125;28;20811;-72
2022/04/07 10:56:08;;;;;;;1.30;1.20;;;12.10;99.90;;;;;;5030207;28;20457;-72
2022/04/07 10:58:56;;;;;;;1.40;1.30;;;12.10;99.90;;;;;;5029845;28;20469;-72
2022/04/07 11:01:52;;;;;;;2.80;1.30;;;12.00;99.90;;;;;;5024511;28;21071;-72
2022/04/07 11:04:58;;;;;;;1.30;1.20;;;12.00;99.90;;;;;;5027223;28;20461;-73
2022/04/07 11:07:25;;;;;;;1.30;1.20;;;11.90;99.90;;;;;;5009899;28;20526;-73
2022/04/07 11:10:10;;;;;;;1.10;1.00;;;11.90;99.90;;;;;;5019131;28;20827;-72
2022/04/07 11:12:39;;;;;;;1.20;1.10;;;11.90;99.90;;;;;;5029727;28;20985;-73
2022/04/07 11:15:26;;;;;;;1.20;1.10;;;12.00;99.90;;;;;;5013573;28;20458;-75
2022/04/07 11:17:58;;;;;;;3.00;1.20;;;12.00;99.90;;;;;;5009724;28;20504;-75
2022/04/07 11:20:25;;;;;;;1.20;1.10;;;12.10;99.90;;;;;;5009956;28;20453;-76
2022/04/07 11:22:55;;;;;;;1.40;1.20;;;12.00;99.90;;;;;;5010870;28;20450;-75
2022/04/07 11:25:25;;;;;;;1.30;1.20;;;12.10;99.90;;;;;;5009655;28;20462;-75
2022/04/07 11:28:19;;;;;;;2.90;1.40;;;12.20;99.90;;;;;;5009928;28;20530;-77
2022/04/07 11:30:48;;;;;;;1.10;0.90;;;12.30;99.90;;;;;;4989749;28;20503;-78
2022/04/07 11:33:30;;;;;;;1.77;1.33;;;12.40;99.90;;;;;;5028668;28;20995;-76
2022/04/07 11:36:14;;;;;;;1.10;1.00;;;12.40;99.90;;;;;;5035814;28;21012;-76
2022/04/07 11:38:44;;;;;;;1.47;1.17;;;12.40;99.90;;;;;;5038692;28;20477;-76
2022/04/07 11:41:12;;;;;;;1.10;1.00;;;12.40;99.90;;;;;;5029490;28;20546;-78
2022/04/07 11:43:41;;;;;;;1.20;1.10;;;12.50;99.90;;;;;;5021434;28;20565;-77
2022/04/07 11:46:08;;;;;;;1.20;1.10;;;12.50;99.90;;;;;;5009684;28;20446;-78
2022/04/07 11:48:37;;;;;;;2.07;1.30;;;12.70;99.90;;;;;;5014690;28;20794;-78
2022/04/07 11:51:11;;;;;;;1.67;1.30;;;12.80;99.90;;;;;;5028714;28;20989;-78
2022/04/07 11:53:40;;;;;;;1.23;1.13;;;13.10;99.90;;;;;;5028558;28;20511;-79
2022/04/07 11:56:13;;;;;;;1.10;1.00;;;13.30;99.90;;;;;;5028280;28;20463;-78
2022/04/07 11:58:40;;;;;;;1.30;1.20;;;13.30;99.90;;;;;;5029194;28;21050;-78
2022/04/07 12:01:11;;;;;;;1.10;1.00;;;13.40;99.90;;;;;;5031337;28;20484;-78
2022/04/07 12:03:39;;;;;;;1.60;1.00;;;13.50;99.90;;;;;;5032710;28;20461;-77
2022/04/07 12:06:06;;;;;;;1.33;1.13;;;13.60;99.90;;;;;;5032776;28;20450;-78
2022/04/07 12:08:33;;;;;;;1.20;1.10;;;13.70;99.90;;;;;;5032756;28;21183;-74
2022/04/07 12:11:00;;;;;;;2.70;1.30;;;13.70;99.90;;;;;;5027426;28;20454;-75
2022/04/07 12:13:26;;;;;;;2.40;1.20;;;13.70;99.90;;;;;;5023114;28;20520;-75
2022/04/07 12:15:53;;;;;;;1.87;1.10;;;13.70;99.90;;;;;;5012717;28;20951;-75
2022/04/07 12:18:26;;;;;;;1.53;1.10;;;13.50;99.90;;;;;;5013064;28;20527;-75
2022/04/07 12:21:00;;;;;;;3.70;1.60;;;13.10;99.90;;;;;;5012790;28;20481;-74
2022/04/07 12:23:27;;;;;;;2.37;1.67;;;12.70;99.90;;;;;;5012567;28;20989;-74
2022/04/07 12:25:59;;;;;;;2.43;1.20;;;12.40;99.90;;;;;;5016363;28;20462;-74
2022/04/07 12:28:33;;;;;;;1.37;1.27;;;12.30;99.90;;;;;;5021620;28;20486;-74
2022/04/07 12:31:00;;;;;;;3.00;1.40;;;12.20;99.90;;;;;;5032580;28;20445;-74
2022/04/07 12:33:40;;;;;;;2.10;1.70;;;12.10;99.90;;;;;;5024492;28;20450;-74
2022/04/07 12:36:09;;;;;;;1.37;1.27;;;12.00;99.90;;;;;;5031998;28;20445;-74
2022/04/07 12:38:37;;;;;;;5.57;1.50;;;11.90;99.90;;;;;;5042212;28;20472;-74
2022/04/07 12:41:14;;;;;;;1.60;1.50;;;11.80;99.90;;;;;;5052123;28;20551;-75
2022/04/07 12:43:50;;;;;;;1.20;1.10;;;11.70;99.90;;;;;;5051939;28;20455;-75
2022/04/07 12:46:17;;;;;;;2.80;1.57;;;11.60;99.90;;;;;;5052097;28;20855;-76
2022/04/07 12:49:04;;;;;;;1.43;1.33;;;11.50;99.90;;;;;;5023366;28;20497;-75
2022/04/07 12:51:34;;;;;;;1.40;1.30;;;11.30;99.90;;;;;;5024583;28;21009;-75
2022/04/07 12:54:08;;;;;;;1.63;1.30;;;11.20;99.90;;;;;;5011836;28;20802;-75
2022/04/07 12:56:36;;;;;;;3.40;1.50;;;11.10;99.90;;;;;;5011957;28;20829;-75
2022/04/07 12:59:04;;;;;;;1.40;1.17;;;11.00;99.90;;;;;;5012486;28;20918;-78
2022/04/07 13:01:31;;;;;;;2.23;1.20;;;10.90;99.90;;;;;;5016594;28;20521;-78